Accueil
METAR-TAF:

METAR-TAF

Aéroports :

Oxford, Angleterre

Aéroport d'Oxford Kidlington

latitude: 51-50-13N, longitude: 1-19-12W, altitude: 82 m

Observation

Le bulletin a été fait il y a 23 minutes, à 19:20 UTC
Vent 6 kt de sud
Température 2°C
Humidité 93%
Pression 1007 hPa
Visibilité 10 km ou plus
pas de nuages en-dessous de 1500 mètres et pas de cumulonimbus.

METAR: EGTK 121920Z 19006KT CAVOK 02/01 Q1007

Heure: 19:43 (19:43 UTC)

Prévision

Le bulletin a été fait il y a 2 heures et 36 minutes, à 17:07 UTC
Prévision valable du 12 à 18 UTC au 12 à 23 UTC
Vent 12 kt de sud/sud-ouest
Visibilité 10 km ou plus
Quelques nuages à une hauteur de 4500 ft
Probabilité 30% :
Temporairement
du 12 à 20 UTC au 12 à 23 UTC
Vent 15 kt de sud-ouest avec des rafales jusqu'à 25 kt
Visibilité: 7000 m
Nuages fragmentés à une hauteur de 1400 ft
pluie

TAF: EGTK 121707Z 1218/1223 21012KT 9999 FEW045 PROB30 TEMPO 1220/1223 22015G25KT 7000 RA BKN014

Observations et prévisions météorologiques de plus de 4000 aéroports (messages METAR et TAF).

Les stations disponibles sont représentées par des disques jaunes et rouges sur la carte.

Passer la souris dessus pour voir le nom de la station.

Cliquer dessus pour voir les observations et prévisions météorologiques.

Pour changer de carte: cliquez sur les boutons verts avec une croix noire pour zoomer, sur le bouton vert avec un tiret pour effectuer un zoom arrière, ou sur les flèches vertes pour les cartes adjacentes.


METAR-TAF: